Aviation Digital Data Service (ADDS)

Output produced by METARs form (1330 UTC 25 February 2018)
found at http://aviationweather.gov/adds/metars/
 
KRDU 251255Z 2513/2612 21014G21KT P6SM FEW015 SCT250 
     FM251500 23012G18KT P6SM VCSH BKN060 
     TEMPO 2516/2520 5SM -SHRA BR 
     FM252100 25008KT P6SM -SHRA OVC080 
     FM261100 VRB04KT 5SM -SHRA OVC025